Goodview, VA (24095)

10:27 AM EST on January 25, 2015 (GMT -0500)
Woodlake | Change Station
CLOSE
Current Station
Personal Weather Station
Location: Goodview, VA
Elevation: 1020 ft
Nearby Weather Stations

Elev 1020 ft 37.22 °N, 79.77 °W | Updated 8 seconds ago

Overcast
Overcast
38.0 °F
Feels Like 38 °F
N
0.0
Wind Variable Wind from SSE
Gusts 1.0 mph

Today
High -- | Low -- °F
--% Chance of Precip.
Yesterday
High -- | Low -- °F
Precip. -- in
7:27 AM 5:35 PM
Waxing Crescent, 33% visible
Pressure 29.91 in
Visibility 10.0 miles
Clouds Mostly Cloudy 15000 ft
Overcast 25000 ft
Windchill 38 °F
Dew Point 33 °F
Humidity 81%
Rainfall 0.00 in
Snow Depth Not available.
UV 1 out of 12
Pollen 1.30 out of 12
Air Quality Not available.
Flu Activity Not available.
METAR KROA 251454Z 28007KT 10SM BKN150 OVC250 03/M02 A2989 RMK AO2 SLP126 T00331022 51007

More Conditions Fewer Conditions

Pressure 29.91 in
Visibility 10.0 miles
Clouds Mostly Cloudy 15000 ft
Overcast 25000 ft
Windchill 38 °F
Dew Point 33 °F
Humidity 81%
Rainfall 0.00 in
Snow Depth Not available.
UV 1 out of 12
Pollen 1.30 out of 12
Air Quality Not available.
Flu Activity Not available.
METAR KROA 251454Z 28007KT 10SM BKN150 OVC250 03/M02 A2989 RMK AO2 SLP126 T00331022 51007

More Conditions Fewer Conditions

10-Day Weather Forecast

Almanac

Astronomy

Jan. 25, 2015 Rise Set
Actual Time
Civil Twilight
Nautical Twilight
Astronomical Twilight
Moon
Length of Visible Light
Length of Day
Tomorrow will be .
, % of the Moon is Illuminated

Today's Extremes

State Highs State Lows

Community

WunderPhotos

Upload Photos

1,789,912 photos uploaded!

WunderBlogs® & News

Nearby

Air Quality

  Air Quality AQ Index Pollutant
Not available.

Snow Depth

Station Depth Elevation

Earthquake Activity

City Distance Mag. Time & Date
Minimum magnitude displayed is 2.5.

Coastal Water Temperatures

Place Temperature

Nearby Weather Stations